CheckWX is a tool to help pilots better visualize weather data.  It is not intended as a substitute for an official pre-flight weather briefing.

14:42:59 UTC

ENSO TAF
Stord Airport
Leirvik, Norway
TAF ENSO 151400Z 1515/1518 27025G40KT 9999 -SHRA FEW015TCU BKN040 BECMG 1515/1517 30022KT

Sep-15@
15:00 UTC

Sep-15 @ 15:00 UTC

Sep-15@
18:00 UTC

Sep-15 @ 18:00 UTC

TAF ENSO 151400Z 1515/1518 27025G40KT 9999 -SHRA FEW015TCU BKN040
Wind
  • 270° at 25 KTS
  • {Gusting to 40 KTS
Conditions
Light Rain
Cloud Levels
  • Few at 1,500' AGL
  • Broken at 4,000' AGL

Sep-15@
15:00 UTC

Sep-15 @ 15:00 UTC

Sep-15@
18:00 UTC

Sep-15 @ 18:00 UTC

BECMG 1515/1517 30022KT

Becoming

Becoming Conditions expected by Sun, Sep 15, 2019 @ 17:00 UTC

Wind
  • 300° at 22 KTS
Conditions
Light Rain
Cloud Levels
  • Few at 1,500' AGL
  • Broken at 4,000' AGL